sensor_id;sensor_type;location;lat;lon;timestamp;pressure;altitude;pressure_sealevel;temperature;humidity
61963;BME280;47927;42.646;23.096;2023-03-13T00:01:55;92265.53;;;0.79;47.80
61963;BME280;47927;42.646;23.096;2023-03-13T00:04:21;92265.50;;;0.70;48.50
61963;BME280;47927;42.646;23.096;2023-03-13T00:06:47;92268.59;;;0.27;50.03
61963;BME280;47927;42.646;23.096;2023-03-13T00:09:14;92264.06;;;0.02;50.79
61963;BME280;47927;42.646;23.096;2023-03-13T00:11:40;92270.09;;;-0.17;50.99
61963;BME280;47927;42.646;23.096;2023-03-13T00:14:06;92268.06;;;-0.29;51.71
61963;BME280;47927;42.646;23.096;2023-03-13T00:16:32;92267.59;;;0.14;50.40
61963;BME280;47927;42.646;23.096;2023-03-13T00:19:02;92270.34;;;0.40;49.84
61963;BME280;47927;42.646;23.096;2023-03-13T00:21:29;92252.97;;;0.37;48.93
61963;BME280;47927;42.646;23.096;2023-03-13T00:23:55;92277.28;;;0.40;49.12
61963;BME280;47927;42.646;23.096;2023-03-13T00:26:24;92275.81;;;0.25;49.64
61963;BME280;47927;42.646;23.096;2023-03-13T00:28:51;92271.09;;;0.41;49.02
61963;BME280;47927;42.646;23.096;2023-03-13T00:31:22;92266.94;;;0.54;48.58
61963;BME280;47927;42.646;23.096;2023-03-13T00:33:50;92269.50;;;0.54;48.05
61963;BME280;47927;42.646;23.096;2023-03-13T00:36:24;92267.03;;;0.40;48.26
61963;BME280;47927;42.646;23.096;2023-03-13T00:38:51;92270.59;;;0.30;48.97
61963;BME280;47927;42.646;23.096;2023-03-13T00:41:20;92268.69;;;0.44;48.70
61963;BME280;47927;42.646;23.096;2023-03-13T00:43:46;92262.66;;;0.40;48.81
61963;BME280;47927;42.646;23.096;2023-03-13T00:46:14;92238.03;;;0.31;48.54
61963;BME280;47927;42.646;23.096;2023-03-13T00:48:40;92263.16;;;0.51;48.22
61963;BME280;47927;42.646;23.096;2023-03-13T00:51:06;92264.97;;;0.51;48.56
61963;BME280;47927;42.646;23.096;2023-03-13T00:53:32;92264.78;;;0.47;48.65
61963;BME280;47927;42.646;23.096;2023-03-13T00:56:07;92266.31;;;0.48;48.51
61963;BME280;47927;42.646;23.096;2023-03-13T00:58:35;92266.31;;;0.48;48.48
61963;BME280;47927;42.646;23.096;2023-03-13T01:01:09;92267.19;;;0.43;48.83
61963;BME280;47927;42.646;23.096;2023-03-13T01:03:35;92239.72;;;0.13;48.41
61963;BME280;47927;42.646;23.096;2023-03-13T01:06:03;92262.69;;;0.27;48.83
61963;BME280;47927;42.646;23.096;2023-03-13T01:08:30;92250.78;;;0.22;49.05
61963;BME280;47927;42.646;23.096;2023-03-13T01:11:04;92251.59;;;0.09;49.19
61963;BME280;47927;42.646;23.096;2023-03-13T01:13:30;92242.72;;;0.06;49.39
61963;BME280;47927;42.646;23.096;2023-03-13T01:16:13;92247.84;;;0.06;49.04
61963;BME280;47927;42.646;23.096;2023-03-13T01:18:48;92248.69;;;0.02;48.88
61963;BME280;47927;42.646;23.096;2023-03-13T01:21:15;92252.00;;;0.02;48.89
61963;BME280;47927;42.646;23.096;2023-03-13T01:23:41;92253.91;;;-0.04;49.17
61963;BME280;47927;42.646;23.096;2023-03-13T01:26:08;92256.97;;;-0.02;49.03
61963;BME280;47927;42.646;23.096;2023-03-13T01:28:35;92265.00;;;-0.17;49.72
61963;BME280;47927;42.646;23.096;2023-03-13T01:31:13;92268.13;;;-0.56;51.00
61963;BME280;47927;42.646;23.096;2023-03-13T01:33:39;92251.97;;;-1.07;52.14
61963;BME280;47927;42.646;23.096;2023-03-13T01:36:06;92273.38;;;-0.89;52.61
61963;BME280;47927;42.646;23.096;2023-03-13T01:38:33;92252.13;;;-0.76;52.14
61963;BME280;47927;42.646;23.096;2023-03-13T01:40:58;92264.91;;;-0.62;51.76
61963;BME280;47927;42.646;23.096;2023-03-13T01:43:26;92276.06;;;-0.58;52.02
61963;BME280;47927;42.646;23.096;2023-03-13T01:49:13;92270.13;;;-0.67;51.54
61963;BME280;47927;42.646;23.096;2023-03-13T01:52:16;92263.38;;;-0.63;51.50
61963;BME280;47927;42.646;23.096;2023-03-13T01:55:02;92276.88;;;-0.85;51.63
61963;BME280;47927;42.646;23.096;2023-03-13T01:57:36;92267.75;;;-1.46;53.50
61963;BME280;47927;42.646;23.096;2023-03-13T02:00:08;92275.97;;;-1.49;53.78
61963;BME280;47927;42.646;23.096;2023-03-13T02:02:42;92238.94;;;-1.79;54.54
61963;BME280;47927;42.646;23.096;2023-03-13T02:05:11;92268.50;;;-1.59;54.19
61963;BME280;47927;42.646;23.096;2023-03-13T02:07:41;92269.56;;;-1.33;54.39
61963;BME280;47927;42.646;23.096;2023-03-13T02:10:09;92281.53;;;-1.01;52.61
61963;BME280;47927;42.646;23.096;2023-03-13T02:12:37;92280.09;;;-0.93;52.27
61963;BME280;47927;42.646;23.096;2023-03-13T02:17:34;92279.84;;;-1.52;53.79
61963;BME280;47927;42.646;23.096;2023-03-13T02:20:01;92284.72;;;-1.23;53.06
61963;BME280;47927;42.646;23.096;2023-03-13T02:28:02;92296.44;;;-1.35;53.33
61963;BME280;47927;42.646;23.096;2023-03-13T02:30:32;92301.25;;;-1.48;53.95
61963;BME280;47927;42.646;23.096;2023-03-13T02:32:59;92302.88;;;-1.38;53.75
61963;BME280;47927;42.646;23.096;2023-03-13T02:35:26;92303.19;;;-1.26;53.06
61963;BME280;47927;42.646;23.096;2023-03-13T02:37:55;92295.13;;;-1.19;52.70
61963;BME280;47927;42.646;23.096;2023-03-13T02:40:25;92298.63;;;-1.29;52.75
61963;BME280;47927;42.646;23.096;2023-03-13T02:42:54;92307.00;;;-1.56;53.57
61963;BME280;47927;42.646;23.096;2023-03-13T02:45:20;92292.44;;;-1.88;54.04
61963;BME280;47927;42.646;23.096;2023-03-13T02:47:46;92328.75;;;-1.91;54.27
61963;BME280;47927;42.646;23.096;2023-03-13T02:50:13;92322.06;;;-1.54;53.47
61963;BME280;47927;42.646;23.096;2023-03-13T02:52:43;92323.91;;;-1.27;53.09
61963;BME280;47927;42.646;23.096;2023-03-13T02:55:40;92326.13;;;-1.07;52.52
61963;BME280;47927;42.646;23.096;2023-03-13T02:58:07;92317.78;;;-1.12;52.29
61963;BME280;47927;42.646;23.096;2023-03-13T03:00:35;92319.47;;;-1.08;52.09
61963;BME280;47927;42.646;23.096;2023-03-13T03:03:01;92331.69;;;-1.05;51.73
61963;BME280;47927;42.646;23.096;2023-03-13T03:05:26;92332.72;;;-1.33;52.94
61963;BME280;47927;42.646;23.096;2023-03-13T03:07:52;92331.94;;;-1.34;52.85
61963;BME280;47927;42.646;23.096;2023-03-13T03:10:18;92322.38;;;-1.28;52.35
61963;BME280;47927;42.646;23.096;2023-03-13T03:12:44;92328.38;;;-1.19;52.21
61963;BME280;47927;42.646;23.096;2023-03-13T03:15:10;92324.88;;;-1.23;51.71
61963;BME280;47927;42.646;23.096;2023-03-13T03:17:40;92349.41;;;-1.08;51.83
61963;BME280;47927;42.646;23.096;2023-03-13T03:20:06;92353.72;;;-1.36;52.35
61963;BME280;47927;42.646;23.096;2023-03-13T03:22:38;92358.41;;;-1.57;53.01
61963;BME280;47927;42.646;23.096;2023-03-13T03:25:06;92359.72;;;-1.46;52.71
61963;BME280;47927;42.646;23.096;2023-03-13T03:27:31;92360.94;;;-1.25;52.42
61963;BME280;47927;42.646;23.096;2023-03-13T03:29:57;92350.56;;;-1.47;52.56
61963;BME280;47927;42.646;23.096;2023-03-13T03:32:23;92359.34;;;-1.21;51.96
61963;BME280;47927;42.646;23.096;2023-03-13T03:34:48;92359.25;;;-1.16;52.07
61963;BME280;47927;42.646;23.096;2023-03-13T03:37:14;92378.09;;;-1.44;52.06
61963;BME280;47927;42.646;23.096;2023-03-13T03:39:39;92379.41;;;-1.98;53.99
61963;BME280;47927;42.646;23.096;2023-03-13T03:42:05;92385.25;;;-2.17;54.87
61963;BME280;47927;42.646;23.096;2023-03-13T03:44:31;92370.47;;;-1.82;54.21
61963;BME280;47927;42.646;23.096;2023-03-13T03:46:58;92384.47;;;-1.42;53.11
61963;BME280;47927;42.646;23.096;2023-03-13T03:49:26;92394.50;;;-1.31;52.45
61963;BME280;47927;42.646;23.096;2023-03-13T03:51:52;92381.63;;;-1.40;52.08
61963;BME280;47927;42.646;23.096;2023-03-13T03:54:23;92391.63;;;-1.95;53.75
61963;BME280;47927;42.646;23.096;2023-03-13T03:56:49;92405.59;;;-2.31;55.36
61963;BME280;47927;42.646;23.096;2023-03-13T03:59:15;92399.13;;;-2.23;55.88
61963;BME280;47927;42.646;23.096;2023-03-13T04:01:45;92396.94;;;-2.11;55.53
61963;BME280;47927;42.646;23.096;2023-03-13T04:04:13;92387.22;;;-1.90;54.86
61963;BME280;47927;42.646;23.096;2023-03-13T04:06:42;92401.47;;;-1.70;53.38
61963;BME280;47927;42.646;23.096;2023-03-13T04:09:08;92414.59;;;-1.95;54.20
61963;BME280;47927;42.646;23.096;2023-03-13T04:11:35;92404.63;;;-2.35;55.59
61963;BME280;47927;42.646;23.096;2023-03-13T04:14:02;92422.84;;;-2.22;55.80
61963;BME280;47927;42.646;23.096;2023-03-13T04:16:28;92422.97;;;-1.90;54.72
61963;BME280;47927;42.646;23.096;2023-03-13T04:18:54;92423.56;;;-1.98;54.46
61963;BME280;47927;42.646;23.096;2023-03-13T04:21:20;92420.50;;;-2.00;54.61
61963;BME280;47927;42.646;23.096;2023-03-13T04:23:52;92420.13;;;-2.31;55.82
61963;BME280;47927;42.646;23.096;2023-03-13T04:26:19;92424.09;;;-2.20;55.37
61963;BME280;47927;42.646;23.096;2023-03-13T04:28:45;92419.00;;;-1.82;54.45
61963;BME280;47927;42.646;23.096;2023-03-13T04:31:15;92424.03;;;-1.58;53.51
61963;BME280;47927;42.646;23.096;2023-03-13T04:34:04;92432.06;;;-1.46;53.25
61963;BME280;47927;42.646;23.096;2023-03-13T04:36:42;92437.03;;;-1.54;52.90
61963;BME280;47927;42.646;23.096;2023-03-13T04:39:35;92444.28;;;-1.43;52.90
61963;BME280;47927;42.646;23.096;2023-03-13T04:42:20;92452.34;;;-1.35;52.65
61963;BME280;47927;42.646;23.096;2023-03-13T04:45:11;92449.88;;;-1.41;52.59
61963;BME280;47927;42.646;23.096;2023-03-13T04:47:49;92452.47;;;-1.27;52.48
61963;BME280;47927;42.646;23.096;2023-03-13T04:50:35;92454.84;;;-1.30;52.58
61963;BME280;47927;42.646;23.096;2023-03-13T04:53:23;92466.50;;;-1.24;52.64
61963;BME280;47927;42.646;23.096;2023-03-13T04:56:10;92466.31;;;-1.28;52.92
61963;BME280;47927;42.646;23.096;2023-03-13T04:59:00;92464.34;;;-1.17;51.42
61963;BME280;47927;42.646;23.096;2023-03-13T05:01:44;92465.09;;;-1.17;51.55
61963;BME280;47927;42.646;23.096;2023-03-13T05:04:32;92459.34;;;-1.08;51.85
61963;BME280;47927;42.646;23.096;2023-03-13T05:07:19;92455.84;;;-1.12;51.71
61963;BME280;47927;42.646;23.096;2023-03-13T05:10:03;92465.69;;;0.37;50.69
61963;BME280;47927;42.646;23.096;2023-03-13T05:12:29;92456.63;;;4.04;43.15
61963;BME280;47927;42.646;23.096;2023-03-13T05:15:13;92471.69;;;6.96;37.14
61963;BME280;47927;42.646;23.096;2023-03-13T05:18:04;92470.25;;;9.21;33.75
61963;BME280;47927;42.646;23.096;2023-03-13T05:20:45;92470.59;;;11.07;30.73
61963;BME280;47927;42.646;23.096;2023-03-13T05:23:45;92466.38;;;12.51;27.51
61963;BME280;47927;42.646;23.096;2023-03-13T05:26:34;92468.78;;;13.62;26.13
61963;BME280;47927;42.646;23.096;2023-03-13T05:29:02;92477.16;;;14.61;25.52
61963;BME280;47927;42.646;23.096;2023-03-13T05:31:46;92473.91;;;15.52;23.69
61963;BME280;47927;42.646;23.096;2023-03-13T05:34:12;92484.69;;;16.38;23.13
61963;BME280;47927;42.646;23.096;2023-03-13T05:37:12;92490.00;;;17.55;21.83
61963;BME280;47927;42.646;23.096;2023-03-13T05:39:58;92493.03;;;18.11;21.18
61963;BME280;47927;42.646;23.096;2023-03-13T05:42:23;92491.72;;;19.21;19.91
61963;BME280;47927;42.646;23.096;2023-03-13T05:45:20;92498.25;;;19.76;18.77
61963;BME280;47927;42.646;23.096;2023-03-13T05:48:08;92501.16;;;19.82;19.12
61963;BME280;47927;42.646;23.096;2023-03-13T05:50:57;92503.94;;;20.11;18.79
61963;BME280;47927;42.646;23.096;2023-03-13T05:53:44;92497.47;;;20.48;17.65
61963;BME280;47927;42.646;23.096;2023-03-13T05:56:28;92502.38;;;20.13;17.47
61963;BME280;47927;42.646;23.096;2023-03-13T05:59:04;92507.31;;;19.75;18.32
61963;BME280;47927;42.646;23.096;2023-03-13T06:01:54;92516.53;;;21.21;17.24
61963;BME280;47927;42.646;23.096;2023-03-13T06:04:28;92512.63;;;21.42;16.42
61963;BME280;47927;42.646;23.096;2023-03-13T06:06:54;92504.63;;;22.26;15.46
61963;BME280;47927;42.646;23.096;2023-03-13T06:09:20;92501.19;;;22.77;15.41
61963;BME280;47927;42.646;23.096;2023-03-13T06:11:45;92509.59;;;22.37;15.35
61963;BME280;47927;42.646;23.096;2023-03-13T06:14:11;92520.16;;;21.44;16.03
61963;BME280;47927;42.646;23.096;2023-03-13T06:19:26;92519.91;;;22.73;15.25
61963;BME280;47927;42.646;23.096;2023-03-13T06:21:52;92512.84;;;23.05;15.01
61963;BME280;47927;42.646;23.096;2023-03-13T06:24:17;92517.09;;;21.87;15.47
61963;BME280;47927;42.646;23.096;2023-03-13T06:26:43;92512.19;;;20.98;17.15
61963;BME280;47927;42.646;23.096;2023-03-13T06:29:09;92514.84;;;20.13;17.25
61963;BME280;47927;42.646;23.096;2023-03-13T06:31:35;92513.44;;;20.93;17.58
61963;BME280;47927;42.646;23.096;2023-03-13T06:34:01;92519.19;;;21.21;16.52
61963;BME280;47927;42.646;23.096;2023-03-13T06:36:26;92516.44;;;20.79;16.68
61963;BME280;47927;42.646;23.096;2023-03-13T06:38:52;92514.16;;;20.29;16.81
61963;BME280;47927;42.646;23.096;2023-03-13T06:41:17;92521.09;;;22.59;15.46
61963;BME280;47927;42.646;23.096;2023-03-13T06:43:43;92518.75;;;23.43;14.43
61963;BME280;47927;42.646;23.096;2023-03-13T06:46:16;92515.19;;;22.90;14.94
61963;BME280;47927;42.646;23.096;2023-03-13T06:48:42;92517.28;;;23.77;14.14
61963;BME280;47927;42.646;23.096;2023-03-13T06:51:13;92511.69;;;23.62;14.07
61963;BME280;47927;42.646;23.096;2023-03-13T06:53:39;92518.75;;;23.78;13.83
61963;BME280;47927;42.646;23.096;2023-03-13T06:56:05;92521.13;;;24.39;13.52
61963;BME280;47927;42.646;23.096;2023-03-13T06:58:31;92522.56;;;24.62;13.78
61963;BME280;47927;42.646;23.096;2023-03-13T07:00:57;92517.78;;;24.16;13.99
61963;BME280;47927;42.646;23.096;2023-03-13T07:03:23;92520.78;;;24.27;13.69
61963;BME280;47927;42.646;23.096;2023-03-13T07:05:54;92520.63;;;25.49;13.49
61963;BME280;47927;42.646;23.096;2023-03-13T07:08:20;92522.72;;;25.35;13.69
61963;BME280;47927;42.646;23.096;2023-03-13T07:10:46;92524.34;;;23.58;14.30
61963;BME280;47927;42.646;23.096;2023-03-13T07:13:15;92520.47;;;24.25;13.47
61963;BME280;47927;42.646;23.096;2023-03-13T07:15:40;92526.72;;;25.21;13.46
61963;BME280;47927;42.646;23.096;2023-03-13T07:18:06;92511.84;;;24.93;13.25
61963;BME280;47927;42.646;23.096;2023-03-13T07:20:31;92511.41;;;25.13;13.70
61963;BME280;47927;42.646;23.096;2023-03-13T07:22:58;92510.50;;;24.88;12.76
61963;BME280;47927;42.646;23.096;2023-03-13T07:25:23;92510.72;;;25.21;12.89
61963;BME280;47927;42.646;23.096;2023-03-13T07:27:50;92506.03;;;23.60;14.26
61963;BME280;47927;42.646;23.096;2023-03-13T07:30:16;92511.41;;;24.45;13.64
61963;BME280;47927;42.646;23.096;2023-03-13T07:32:42;92503.97;;;24.40;13.62
61963;BME280;47927;42.646;23.096;2023-03-13T07:35:08;92509.16;;;23.81;14.03
61963;BME280;47927;42.646;23.096;2023-03-13T07:37:33;92506.91;;;23.79;14.57
61963;BME280;47927;42.646;23.096;2023-03-13T07:39:59;92519.84;;;23.90;13.94
61963;BME280;47927;42.646;23.096;2023-03-13T07:42:24;92521.81;;;24.52;14.07
61963;BME280;47927;42.646;23.096;2023-03-13T07:44:52;92514.88;;;24.32;13.15
61963;BME280;47927;42.646;23.096;2023-03-13T07:47:17;92509.13;;;23.37;14.09
61963;BME280;47927;42.646;23.096;2023-03-13T07:49:43;92506.16;;;24.32;13.91
61963;BME280;47927;42.646;23.096;2023-03-13T07:52:10;92510.00;;;24.00;14.32
61963;BME280;47927;42.646;23.096;2023-03-13T07:54:36;92509.84;;;23.15;15.12
61963;BME280;47927;42.646;23.096;2023-03-13T07:57:02;92503.25;;;23.42;14.37
61963;BME280;47927;42.646;23.096;2023-03-13T07:59:28;92498.63;;;24.80;13.86
61963;BME280;47927;42.646;23.096;2023-03-13T08:01:53;92508.94;;;25.18;13.23
61963;BME280;47927;42.646;23.096;2023-03-13T08:04:19;92505.28;;;26.13;12.77
61963;BME280;47927;42.646;23.096;2023-03-13T08:06:44;92502.53;;;25.07;13.74
61963;BME280;47927;42.646;23.096;2023-03-13T08:09:10;92504.63;;;25.21;13.43
61963;BME280;47927;42.646;23.096;2023-03-13T08:11:38;92505.31;;;23.82;14.66
61963;BME280;47927;42.646;23.096;2023-03-13T08:14:09;92510.72;;;24.63;14.89
61963;BME280;47927;42.646;23.096;2023-03-13T08:16:34;92511.16;;;25.84;13.88
61963;BME280;47927;42.646;23.096;2023-03-13T08:19:03;92512.28;;;26.02;13.53
61963;BME280;47927;42.646;23.096;2023-03-13T08:21:35;92505.38;;;25.49;14.19
61963;BME280;47927;42.646;23.096;2023-03-13T08:24:04;92517.78;;;25.06;14.58
61963;BME280;47927;42.646;23.096;2023-03-13T08:26:32;92518.13;;;24.68;14.33
61963;BME280;47927;42.646;23.096;2023-03-13T08:29:04;92524.00;;;23.47;15.09
61963;BME280;47927;42.646;23.096;2023-03-13T08:31:41;92505.78;;;23.46;15.41
61963;BME280;47927;42.646;23.096;2023-03-13T08:34:07;92514.47;;;23.59;15.41
61963;BME280;47927;42.646;23.096;2023-03-13T08:36:35;92516.16;;;23.31;15.71
61963;BME280;47927;42.646;23.096;2023-03-13T08:39:04;92518.47;;;21.92;16.60
61963;BME280;47927;42.646;23.096;2023-03-13T08:41:32;92498.91;;;21.73;16.98
61963;BME280;47927;42.646;23.096;2023-03-13T08:44:00;92505.53;;;22.06;17.04
61963;BME280;47927;42.646;23.096;2023-03-13T08:46:28;92511.41;;;22.65;16.47
61963;BME280;47927;42.646;23.096;2023-03-13T08:48:54;92511.44;;;23.13;16.51
61963;BME280;47927;42.646;23.096;2023-03-13T08:51:22;92507.13;;;23.06;16.03
61963;BME280;47927;42.646;23.096;2023-03-13T08:53:49;92514.22;;;23.09;15.63
61963;BME280;47927;42.646;23.096;2023-03-13T08:56:17;92511.22;;;21.37;16.66
61963;BME280;47927;42.646;23.096;2023-03-13T08:58:43;92520.72;;;21.51;17.40
61963;BME280;47927;42.646;23.096;2023-03-13T09:01:11;92513.03;;;21.82;16.35
61963;BME280;47927;42.646;23.096;2023-03-13T09:03:38;92511.72;;;22.16;17.21
61963;BME280;47927;42.646;23.096;2023-03-13T09:06:04;92515.53;;;22.02;15.57
61963;BME280;47927;42.646;23.096;2023-03-13T09:08:31;92509.19;;;22.38;16.11
61963;BME280;47927;42.646;23.096;2023-03-13T09:11:02;92514.31;;;23.18;15.79
61963;BME280;47927;42.646;23.096;2023-03-13T09:13:30;92512.25;;;23.23;15.00
61963;BME280;47927;42.646;23.096;2023-03-13T09:15:58;92506.72;;;23.52;15.49
61963;BME280;47927;42.646;23.096;2023-03-13T09:18:25;92510.88;;;22.70;15.50
61963;BME280;47927;42.646;23.096;2023-03-13T09:20:51;92507.44;;;22.06;15.78
61963;BME280;47927;42.646;23.096;2023-03-13T09:23:17;92506.13;;;22.27;15.74
61963;BME280;47927;42.646;23.096;2023-03-13T09:25:43;92512.69;;;22.48;15.68
61963;BME280;47927;42.646;23.096;2023-03-13T09:28:09;92512.56;;;22.77;15.81
61963;BME280;47927;42.646;23.096;2023-03-13T09:30:35;92516.75;;;23.13;14.96
61963;BME280;47927;42.646;23.096;2023-03-13T09:33:00;92509.84;;;23.15;15.03
61963;BME280;47927;42.646;23.096;2023-03-13T09:35:26;92514.56;;;21.54;15.79
61963;BME280;47927;42.646;23.096;2023-03-13T09:37:51;92512.91;;;21.15;16.12
61963;BME280;47927;42.646;23.096;2023-03-13T09:40:19;92510.81;;;21.39;17.11
61963;BME280;47927;42.646;23.096;2023-03-13T09:42:55;92496.38;;;21.69;16.48
61963;BME280;47927;42.646;23.096;2023-03-13T09:48:12;92482.81;;;20.76;17.34
61963;BME280;47927;42.646;23.096;2023-03-13T09:50:46;92492.47;;;20.99;17.45
61963;BME280;47927;42.646;23.096;2023-03-13T09:53:29;92501.75;;;19.89;17.00
61963;BME280;47927;42.646;23.096;2023-03-13T09:55:56;92507.03;;;19.89;18.13
61963;BME280;47927;42.646;23.096;2023-03-13T09:58:24;92497.28;;;19.86;18.23
61963;BME280;47927;42.646;23.096;2023-03-13T10:00:53;92499.34;;;20.15;17.78
61963;BME280;47927;42.646;23.096;2023-03-13T10:05:59;92488.28;;;19.00;18.30
61963;BME280;47927;42.646;23.096;2023-03-13T10:08:28;92487.06;;;19.68;17.97
61963;BME280;47927;42.646;23.096;2023-03-13T10:11:29;92481.19;;;19.97;17.04
61963;BME280;47927;42.646;23.096;2023-03-13T10:14:10;92480.09;;;20.47;16.98
61963;BME280;47927;42.646;23.096;2023-03-13T10:16:47;92473.66;;;20.32;16.94
61963;BME280;47927;42.646;23.096;2023-03-13T10:19:24;92443.50;;;17.99;18.40
61963;BME280;47927;42.646;23.096;2023-03-13T10:21:52;92463.78;;;18.53;19.40
61963;BME280;47927;42.646;23.096;2023-03-13T10:24:44;92467.28;;;19.17;18.06
61963;BME280;47927;42.646;23.096;2023-03-13T10:27:13;92456.63;;;19.40;17.76
61963;BME280;47927;42.646;23.096;2023-03-13T10:29:39;92456.34;;;19.15;18.30
61963;BME280;47927;42.646;23.096;2023-03-13T10:32:06;92457.09;;;20.11;17.70
61963;BME280;47927;42.646;23.096;2023-03-13T10:37:22;92449.25;;;19.51;18.60
61963;BME280;47927;42.646;23.096;2023-03-13T10:39:48;92448.38;;;20.11;17.57
61963;BME280;47927;42.646;23.096;2023-03-13T10:42:20;92444.94;;;20.30;16.87
61963;BME280;47927;42.646;23.096;2023-03-13T10:44:48;92437.25;;;20.68;17.01
61963;BME280;47927;42.646;23.096;2023-03-13T10:47:14;92445.59;;;20.18;17.22
61963;BME280;47927;42.646;23.096;2023-03-13T10:49:54;92443.53;;;20.58;16.91
61963;BME280;47927;42.646;23.096;2023-03-13T10:52:40;92442.44;;;19.90;17.68
61963;BME280;47927;42.646;23.096;2023-03-13T10:55:12;92436.88;;;19.48;17.04
61963;BME280;47927;42.646;23.096;2023-03-13T10:57:40;92433.25;;;19.58;18.09
61963;BME280;47927;42.646;23.096;2023-03-13T11:02:49;92408.00;;;19.18;18.30
61963;BME280;47927;42.646;23.096;2023-03-13T11:05:40;92421.41;;;18.16;18.97
61963;BME280;47927;42.646;23.096;2023-03-13T11:08:22;92411.91;;;18.46;18.52
61963;BME280;47927;42.646;23.096;2023-03-13T11:11:05;92407.38;;;17.99;18.75
61963;BME280;47927;42.646;23.096;2023-03-13T11:13:42;92424.03;;;17.62;20.25
61963;BME280;47927;42.646;23.096;2023-03-13T11:16:21;92426.13;;;17.74;19.94
61963;BME280;47927;42.646;23.096;2023-03-13T11:21:26;92412.72;;;17.92;19.53
61963;BME280;47927;42.646;23.096;2023-03-13T11:24:06;92408.69;;;17.26;19.31
61963;BME280;47927;42.646;23.096;2023-03-13T11:26:41;92402.56;;;17.02;19.77
61963;BME280;47927;42.646;23.096;2023-03-13T11:29:33;92402.63;;;16.99;20.44
61963;BME280;47927;42.646;23.096;2023-03-13T11:32:04;92405.56;;;17.01;19.82
61963;BME280;47927;42.646;23.096;2023-03-13T11:34:41;92393.59;;;16.58;20.20
61963;BME280;47927;42.646;23.096;2023-03-13T11:37:15;92391.13;;;16.40;20.36
61963;BME280;47927;42.646;23.096;2023-03-13T11:50:39;92361.06;;;16.41;21.23
61963;BME280;47927;42.646;23.096;2023-03-13T11:53:13;92364.22;;;15.81;22.13
61963;BME280;47927;42.646;23.096;2023-03-13T11:58:40;92355.22;;;16.64;21.47
61963;BME280;47927;42.646;23.096;2023-03-13T12:01:16;92346.19;;;17.30;19.98
61963;BME280;47927;42.646;23.096;2023-03-13T12:06:35;92340.25;;;16.58;20.53
61963;BME280;47927;42.646;23.096;2023-03-13T12:09:27;92333.47;;;15.15;21.32
61963;BME280;47927;42.646;23.096;2023-03-13T12:20:28;92314.53;;;16.01;21.88
61963;BME280;47927;42.646;23.096;2023-03-13T12:23:16;92324.78;;;16.26;21.21
61963;BME280;47927;42.646;23.096;2023-03-13T12:25:55;92319.78;;;16.73;21.97
61963;BME280;47927;42.646;23.096;2023-03-13T12:28:40;92320.56;;;17.04;21.02
61963;BME280;47927;42.646;23.096;2023-03-13T12:33:59;92315.63;;;16.41;21.33
61963;BME280;47927;42.646;23.096;2023-03-13T12:36:45;92295.81;;;15.39;22.17
61963;BME280;47927;42.646;23.096;2023-03-13T12:42:15;92310.09;;;15.90;21.47
61963;BME280;47927;42.646;23.096;2023-03-13T12:44:41;92314.03;;;15.68;22.10
61963;BME280;47927;42.646;23.096;2023-03-13T12:59:37;92322.91;;;15.22;22.70
61963;BME280;47927;42.646;23.096;2023-03-13T13:01:50;92319.50;;;14.33;23.24
61963;BME280;47927;42.646;23.096;2023-03-13T13:04:20;92312.47;;;13.98;24.37
61963;BME280;47927;42.646;23.096;2023-03-13T13:07:06;92320.22;;;14.41;24.34
61963;BME280;47927;42.646;23.096;2023-03-13T13:09:35;92321.72;;;14.49;24.31
61963;BME280;47927;42.646;23.096;2023-03-13T13:12:20;92313.97;;;15.16;23.70
61963;BME280;47927;42.646;23.096;2023-03-13T13:19:45;92296.44;;;14.95;24.08
61963;BME280;47927;42.646;23.096;2023-03-13T13:30:34;92296.88;;;14.86;24.54
61963;BME280;47927;42.646;23.096;2023-03-13T13:35:44;92294.84;;;15.15;24.33
61963;BME280;47927;42.646;23.096;2023-03-13T13:49:12;92293.63;;;14.46;24.64
61963;BME280;47927;42.646;23.096;2023-03-13T13:57:11;92290.28;;;14.46;24.35
61963;BME280;47927;42.646;23.096;2023-03-13T13:59:44;92272.75;;;14.14;24.63
61963;BME280;47927;42.646;23.096;2023-03-13T14:02:15;92289.22;;;14.25;24.49
61963;BME280;47927;42.646;23.096;2023-03-13T14:04:54;92279.78;;;14.49;24.44
61963;BME280;47927;42.646;23.096;2023-03-13T14:07:27;92283.22;;;14.25;24.61
61963;BME280;47927;42.646;23.096;2023-03-13T14:10:02;92280.97;;;14.27;25.05
61963;BME280;47927;42.646;23.096;2023-03-13T14:12:35;92275.75;;;14.09;25.34
61963;BME280;47927;42.646;23.096;2023-03-13T14:17:38;92280.31;;;13.58;26.22
61963;BME280;47927;42.646;23.096;2023-03-13T14:20:14;92287.03;;;13.77;25.68
61963;BME280;47927;42.646;23.096;2023-03-13T14:22:47;92284.41;;;13.74;26.25
61963;BME280;47927;42.646;23.096;2023-03-13T14:25:13;92278.78;;;13.86;26.18
61963;BME280;47927;42.646;23.096;2023-03-13T14:27:42;92268.34;;;13.50;26.22
61963;BME280;47927;42.646;23.096;2023-03-13T14:30:09;92285.38;;;12.69;28.21
61963;BME280;47927;42.646;23.096;2023-03-13T14:32:35;92282.09;;;12.97;26.87
61963;BME280;47927;42.646;23.096;2023-03-13T14:35:03;92281.69;;;12.84;27.26
61963;BME280;47927;42.646;23.096;2023-03-13T14:37:35;92286.94;;;12.95;27.20
61963;BME280;47927;42.646;23.096;2023-03-13T14:40:08;92288.13;;;13.15;26.60
61963;BME280;47927;42.646;23.096;2023-03-13T14:42:45;92270.16;;;13.14;25.71
61963;BME280;47927;42.646;23.096;2023-03-13T14:45:13;92281.78;;;13.34;26.10
61963;BME280;47927;42.646;23.096;2023-03-13T14:47:39;92286.31;;;13.48;24.10
61963;BME280;47927;42.646;23.096;2023-03-13T14:50:11;92287.41;;;13.29;24.42
61963;BME280;47927;42.646;23.096;2023-03-13T14:52:44;92282.88;;;13.15;24.59
61963;BME280;47927;42.646;23.096;2023-03-13T14:55:31;92274.25;;;13.11;24.65
61963;BME280;47927;42.646;23.096;2023-03-13T14:58:04;92276.53;;;13.16;25.08